Shinmisaki — JD2336 — position and weather

sailwx.info

Track history (hours):
 
Tides and Currents Weather Stations Pressure Air Temp Water Temp Dewpoint Dewpoint Depression Visibility Wind Speed Wind Dir Waves Ship Positions

Shinmisaki

Last reported at 2018-Jun-18 07:54 UTC. Time now 2018-Jun-25 17:31 UTC.
Position N 34°12' E 134°53'.

Length 59 m.

Type: Cargo ship. MMSI: 431501881.

Date/timePositionNaut miles runAvg speedWind from/ knotsBaromVisibWave heightAir tempDewpointWater temp
2018-Jun-18 07:54N 34°12' E 134°53'512.5
2018-Jun-18 07:30N 34°13' E 134°58'611.7
2018-Jun-18 07:00N 34°15' E 135°05'1 0.5
2018-Jun-18 05:37N 34°15' E 135°06'0 0.0
2018-Jun-18 03:49N 34°15' E 135°06'1 0.2
2018-Jun-17 23:29N 34°14' E 135°06'5 2.7
2018-Jun-17 21:35N 34°10' E 135°09'0 0.4
2018-Jun-17 21:27N 34°10' E 135°09'3 0.1
2018-Jun-16 22:57N 34°12' E 135°07'510.8
2018-Jun-16 22:29N 34°16' E 135°03'611.5
2018-Jun-16 21:59N 34°21' E 135°06'612.2
2018-Jun-16 21:29N 34°26' E 135°10'612.1
2018-Jun-16 20:57N 34°31' E 135°16'512.0
2018-Jun-16 20:30N 34°34' E 135°21'5 1.4
2018-Jun-16 16:50N 34°35' E 135°27'8 9.2
2018-Jun-16 15:58N 34°36' E 135°17'4 9.6
2018-Jun-16 15:30N 34°35' E 135°12'610.6
2018-Jun-16 14:57N 34°35' E 135°05'15 6.9
2018-Jun-16 12:50N 34°32' E 134°47'3 7.9
2018-Jun-16 12:28N 34°31' E 134°44'6 9.2
2018-Jun-16 11:46N 34°29' E 134°37'310.0
2018-Jun-16 11:28N 34°28' E 134°33'27 0.7
2018-Jun-14 19:38N 34°36' E 135°04'1 7.3
2018-Jun-14 19:30N 34°35' E 135°05'5 8.4
2018-Jun-14 18:56N 34°30' E 135°05'5 9.8
2018-Jun-14 18:24N 34°25' E 135°04'4 9.2
2018-Jun-14 17:57N 34°21' E 135°04'4 8.6
2018-Jun-14 17:28N 34°17' E 135°03'4 7.1
2018-Jun-14 16:56N 34°15' E 135°07'0 0.2
2018-Jun-14 16:05N 34°15' E 135°07'1 0.3
2018-Jun-14 12:54N 34°15' E 135°06'0 0.0
2018-Jun-14 10:39N 34°15' E 135°06'1 4.4
2018-Jun-14 10:29N 34°15' E 135°05'4 8.1
2018-Jun-14 10:00N 34°19' E 135°04'610.8
2018-Jun-14 09:29N 34°23' E 135°08'611.5
2018-Jun-14 09:00N 34°28' E 135°13'611.6
2018-Jun-14 08:28N 34°32' E 135°18'611.5
2018-Jun-14 07:58N 34°37' E 135°22'4 0.4
2018-Jun-13 22:17N 34°39' E 135°27'0 0.1
2018-Jun-13 21:47N 34°39' E 135°27'0 0.0
2018-Jun-13 21:29N 34°39' E 135°27'0 0.0
2018-Jun-13 20:53N 34°39' E 135°27'0 0.0
2018-Jun-13 20:29N 34°39' E 135°27'0 0.0
2018-Jun-13 16:29N 34°39' E 135°27'0 0.0
2018-Jun-13 15:59N 34°39' E 135°27'0 0.0
2018-Jun-13 15:29N 34°39' E 135°27'0 0.0
2018-Jun-13 14:59N 34°39' E 135°27'0 0.0
2018-Jun-13 14:29N 34°39' E 135°27'0 0.0
2018-Jun-13 13:35N 34°39' E 135°27'0 0.0
2018-Jun-13 13:23N 34°39' E 135°27'0 0.0
2018-Jun-13 12:53N 34°39' E 135°27'0 0.0
2018-Jun-13 12:29N 34°39' E 135°27'0 0.0
2018-Jun-13 11:15N 34°39' E 135°27'0 0.2
2018-Jun-13 10:57N 34°39' E 135°27'26 8.8
2018-Jun-13 08:00N 34°20' E 135°05'611.4
2018-Jun-13 07:30N 34°14' E 135°03'810.3
2018-Jun-13 06:41N 34°06' E 135°03'310.1
2018-Jun-13 06:23N 34°03' E 135°03'243 7.7
2018-Jun-11 22:45N 35°23' E 139°42'410.7
2018-Jun-11 22:24N 35°26' E 139°45'  
Track history (hours):
 
Tides and Currents Weather Stations Pressure Air Temp Water Temp Dewpoint Dewpoint Depression Visibility Wind Speed Wind Dir Waves Ship Positions

Shinmisaki

Last reported at 2018-Jun-18 07:54 UTC. Time now 2018-Jun-25 17:31 UTC.
Position N 34°12' E 134°53'.

Length 59 m.

Type: Cargo ship. MMSI: 431501881.

Date/timePositionNaut miles runAvg speedWind from/ knotsBaromVisibWave heightAir tempDewpointWater temp
2018-Jun-18 07:54N 34°12' E 134°53'512.5
2018-Jun-18 07:30N 34°13' E 134°58'611.7
2018-Jun-18 07:00N 34°15' E 135°05'1 0.5
2018-Jun-18 05:37N 34°15' E 135°06'0 0.0
2018-Jun-18 03:49N 34°15' E 135°06'1 0.2
2018-Jun-17 23:29N 34°14' E 135°06'5 2.7
2018-Jun-17 21:35N 34°10' E 135°09'0 0.4
2018-Jun-17 21:27N 34°10' E 135°09'3 0.1
2018-Jun-16 22:57N 34°12' E 135°07'510.8
2018-Jun-16 22:29N 34°16' E 135°03'611.5
2018-Jun-16 21:59N 34°21' E 135°06'612.2
2018-Jun-16 21:29N 34°26' E 135°10'612.1
2018-Jun-16 20:57N 34°31' E 135°16'512.0
2018-Jun-16 20:30N 34°34' E 135°21'5 1.4
2018-Jun-16 16:50N 34°35' E 135°27'8 9.2
2018-Jun-16 15:58N 34°36' E 135°17'4 9.6
2018-Jun-16 15:30N 34°35' E 135°12'610.6
2018-Jun-16 14:57N 34°35' E 135°05'15 6.9
2018-Jun-16 12:50N 34°32' E 134°47'3 7.9
2018-Jun-16 12:28N 34°31' E 134°44'6 9.2
2018-Jun-16 11:46N 34°29' E 134°37'310.0
2018-Jun-16 11:28N 34°28' E 134°33'27 0.7
2018-Jun-14 19:38N 34°36' E 135°04'1 7.3
2018-Jun-14 19:30N 34°35' E 135°05'5 8.4
2018-Jun-14 18:56N 34°30' E 135°05'5 9.8
2018-Jun-14 18:24N 34°25' E 135°04'4 9.2
2018-Jun-14 17:57N 34°21' E 135°04'4 8.6
2018-Jun-14 17:28N 34°17' E 135°03'4 7.1
2018-Jun-14 16:56N 34°15' E 135°07'0 0.2
2018-Jun-14 16:05N 34°15' E 135°07'1 0.3
2018-Jun-14 12:54N 34°15' E 135°06'0 0.0
2018-Jun-14 10:39N 34°15' E 135°06'1 4.4
2018-Jun-14 10:29N 34°15' E 135°05'4 8.1
2018-Jun-14 10:00N 34°19' E 135°04'610.8
2018-Jun-14 09:29N 34°23' E 135°08'611.5
2018-Jun-14 09:00N 34°28' E 135°13'611.6
2018-Jun-14 08:28N 34°32' E 135°18'611.5
2018-Jun-14 07:58N 34°37' E 135°22'4 0.4
2018-Jun-13 22:17N 34°39' E 135°27'0 0.1
2018-Jun-13 21:47N 34°39' E 135°27'0 0.0
2018-Jun-13 21:29N 34°39' E 135°27'0 0.0
2018-Jun-13 20:53N 34°39' E 135°27'0 0.0
2018-Jun-13 20:29N 34°39' E 135°27'0 0.0
2018-Jun-13 16:29N 34°39' E 135°27'0 0.0
2018-Jun-13 15:59N 34°39' E 135°27'0 0.0
2018-Jun-13 15:29N 34°39' E 135°27'0 0.0
2018-Jun-13 14:59N 34°39' E 135°27'0 0.0
2018-Jun-13 14:29N 34°39' E 135°27'0 0.0
2018-Jun-13 13:35N 34°39' E 135°27'0 0.0
2018-Jun-13 13:23N 34°39' E 135°27'0 0.0
2018-Jun-13 12:53N 34°39' E 135°27'0 0.0
2018-Jun-13 12:29N 34°39' E 135°27'0 0.0
2018-Jun-13 11:15N 34°39' E 135°27'0 0.2
2018-Jun-13 10:57N 34°39' E 135°27'26 8.8
2018-Jun-13 08:00N 34°20' E 135°05'611.4
2018-Jun-13 07:30N 34°14' E 135°03'810.3
2018-Jun-13 06:41N 34°06' E 135°03'310.1
2018-Jun-13 06:23N 34°03' E 135°03'243 7.7
2018-Jun-11 22:45N 35°23' E 139°42'410.7
2018-Jun-11 22:24N 35°26' E 139°45'  

Dump ship's entire track history